createdAt,value
2019-05-25T00:02:09.515Z,18.11
2019-05-25T00:04:44.551Z,18.11
2019-05-25T00:07:16.902Z,18.15
2019-05-25T00:09:49.080Z,18.21
2019-05-25T00:12:20.848Z,18.20
2019-05-25T00:14:53.886Z,18.18
2019-05-25T00:17:25.477Z,18.12
2019-05-25T00:19:58.935Z,18.07
2019-05-25T00:22:31.758Z,18.07
2019-05-25T00:25:03.571Z,18.04
2019-05-25T00:27:37.314Z,18.03
2019-05-25T00:30:09.811Z,18.01
2019-05-25T00:32:41.345Z,17.96
2019-05-25T00:35:13.612Z,17.89
2019-05-25T00:37:47.217Z,17.92
2019-05-25T00:40:18.765Z,17.88
2019-05-25T00:42:50.825Z,17.92
2019-05-25T00:45:23.704Z,18.01
2019-05-25T00:47:56.906Z,18.03
2019-05-25T00:50:28.356Z,18.06
2019-05-25T00:52:59.801Z,18.09
2019-05-25T00:55:31.862Z,18.10
2019-05-25T00:58:03.224Z,18.09
2019-05-25T01:00:35.068Z,18.04
2019-05-25T01:03:06.827Z,18.03
2019-05-25T01:05:38.487Z,17.98
2019-05-25T01:08:10.193Z,17.94
2019-05-25T01:10:41.793Z,17.93
2019-05-25T01:13:13.541Z,17.95
2019-05-25T01:15:45.400Z,17.97
2019-05-25T01:18:16.953Z,17.95
2019-05-25T01:20:49.124Z,17.93
2019-05-25T01:23:20.671Z,17.90
2019-05-25T01:25:52.379Z,17.90
2019-05-25T01:28:24.388Z,17.88
2019-05-25T01:30:55.611Z,17.80
2019-05-25T01:33:27.505Z,17.87
2019-05-25T01:36:00.069Z,17.88
2019-05-25T01:38:31.763Z,17.92
2019-05-25T01:41:05.411Z,17.94
2019-05-25T01:43:39.852Z,17.94
2019-05-25T01:46:11.395Z,17.88
2019-05-25T01:48:43.870Z,17.90
2019-05-25T01:51:15.619Z,17.89
2019-05-25T01:53:47.281Z,17.89
2019-05-25T01:56:20.902Z,17.93
2019-05-25T01:58:53.690Z,17.95
2019-05-25T02:01:25.327Z,17.95
2019-05-25T02:03:57.589Z,17.92
2019-05-25T02:06:29.750Z,17.91
2019-05-25T02:09:01.712Z,17.90
2019-05-25T02:11:34.487Z,17.82
2019-05-25T02:14:06.509Z,17.81
2019-05-25T02:16:38.312Z,17.79
2019-05-25T02:19:10.170Z,17.85
2019-05-25T02:21:42.242Z,17.81
2019-05-25T02:24:14.713Z,17.83
2019-05-25T02:26:48.642Z,17.84
2019-05-25T02:29:20.006Z,17.86
2019-05-25T02:31:52.972Z,17.87
2019-05-25T02:34:25.519Z,17.88
2019-05-25T02:36:57.232Z,17.91
2019-05-25T02:39:31.283Z,17.78
2019-05-25T02:42:02.938Z,17.85
2019-05-25T02:44:36.693Z,17.88
2019-05-25T02:47:08.343Z,17.91
2019-05-25T02:49:40.763Z,17.85
2019-05-25T02:52:13.687Z,17.92
2019-05-25T02:54:45.523Z,18.00
2019-05-25T02:57:18.193Z,18.07
2019-05-25T02:59:50.356Z,18.15
2019-05-25T03:02:25.693Z,18.24
2019-05-25T03:04:57.551Z,18.38
2019-05-25T03:07:30.424Z,18.38
2019-05-25T03:10:02.187Z,18.42
2019-05-25T03:12:33.918Z,18.45
2019-05-25T03:15:09.287Z,18.47
2019-05-25T03:17:41.862Z,18.55
2019-05-25T03:20:13.875Z,18.57
2019-05-25T03:22:46.196Z,18.59
2019-05-25T03:25:19.730Z,18.69
2019-05-25T03:27:50.941Z,18.72
2019-05-25T03:30:36.609Z,18.74
2019-05-25T03:33:07.723Z,18.81
2019-05-25T03:35:39.941Z,18.89
2019-05-25T03:38:14.249Z,18.99
2019-05-25T03:40:45.798Z,19.05
2019-05-25T03:43:18.169Z,19.06
2019-05-25T03:45:49.769Z,19.06
2019-05-25T03:48:24.854Z,19.18
2019-05-25T03:50:58.250Z,19.19
2019-05-25T03:53:33.079Z,19.24
2019-05-25T03:56:06.681Z,19.17
2019-05-25T03:58:38.239Z,19.25
2019-05-25T04:01:10.939Z,19.45
2019-05-25T04:03:45.032Z,19.53
2019-05-25T04:06:19.017Z,19.62
2019-05-25T04:08:51.506Z,19.53
2019-05-25T04:11:25.754Z,19.46
2019-05-25T04:13:57.265Z,19.35
2019-05-25T04:16:29.242Z,19.25
2019-05-25T04:19:02.012Z,19.41
2019-05-25T04:21:34.796Z,19.37
2019-05-25T04:24:06.663Z,19.40
2019-05-25T04:26:38.921Z,19.32
2019-05-25T04:29:12.516Z,19.35
2019-05-25T04:31:45.478Z,19.38
2019-05-25T04:34:18.800Z,19.42
2019-05-25T04:36:50.222Z,19.39
2019-05-25T04:39:21.946Z,19.54
2019-05-25T04:41:54.678Z,19.68
2019-05-25T04:44:26.028Z,19.73
2019-05-25T04:46:59.904Z,19.77
2019-05-25T04:49:31.590Z,19.56
2019-05-25T04:52:04.791Z,19.61
2019-05-25T04:54:36.459Z,19.39
2019-05-25T04:57:08.140Z,19.19
2019-05-25T04:59:41.665Z,19.32
2019-05-25T05:02:14.072Z,19.61
2019-05-25T05:04:47.768Z,19.78
2019-05-25T05:07:20.131Z,20.05
2019-05-25T05:10:02.218Z,20.19
2019-05-25T05:12:28.151Z,20.15
2019-05-25T05:14:59.594Z,19.94
2019-05-25T05:17:34.470Z,19.97
2019-05-25T05:20:09.354Z,19.89
2019-05-25T05:22:40.624Z,19.77
2019-05-25T05:25:15.260Z,19.73
2019-05-25T05:27:46.669Z,19.72
2019-05-25T05:30:21.660Z,19.69
2019-05-25T05:32:53.521Z,19.63
2019-05-25T05:35:26.961Z,19.66
2019-05-25T05:38:02.096Z,19.36
2019-05-25T05:40:36.631Z,19.34
2019-05-25T05:43:11.857Z,19.50
2019-05-25T05:45:48.964Z,19.90
2019-05-25T05:48:23.764Z,20.03
2019-05-25T05:50:59.514Z,20.27
2019-05-25T05:53:36.419Z,20.61
2019-05-25T05:56:09.583Z,20.73
2019-05-25T05:58:41.946Z,21.13
2019-05-25T06:01:14.323Z,21.43
2019-05-25T06:03:46.440Z,21.43
2019-05-25T06:06:19.236Z,21.45
2019-05-25T06:08:51.217Z,21.47
2019-05-25T06:11:23.294Z,20.95
2019-05-25T06:13:55.157Z,20.84
2019-05-25T06:16:28.946Z,20.86
2019-05-25T06:19:01.564Z,20.91
2019-05-25T06:21:34.976Z,20.72
2019-05-25T06:24:09.137Z,21.14
2019-05-25T06:26:42.535Z,21.41
2019-05-25T06:29:14.392Z,21.20
2019-05-25T06:31:46.455Z,21.19
2019-05-25T06:34:19.032Z,21.60
2019-05-25T06:36:51.712Z,21.94
2019-05-25T06:39:24.555Z,22.14
2019-05-25T06:41:59.015Z,22.30
2019-05-25T06:44:32.618Z,21.79
2019-05-25T06:47:10.310Z,21.69
2019-05-25T06:49:43.189Z,22.11
2019-05-25T06:52:17.410Z,22.00
2019-05-25T06:54:49.610Z,22.53
2019-05-25T06:57:23.382Z,23.37
2019-05-25T06:59:55.134Z,23.54
2019-05-25T07:02:27.077Z,23.44
2019-05-25T07:05:00.490Z,23.41
2019-05-25T07:07:33.618Z,23.49
2019-05-25T07:10:09.387Z,23.52
2019-05-25T07:12:40.710Z,23.31
2019-05-25T07:15:14.573Z,22.93
2019-05-25T07:17:45.655Z,23.12
2019-05-25T07:20:17.294Z,23.18
2019-05-25T07:22:50.269Z,23.30
2019-05-25T07:25:22.442Z,23.68
2019-05-25T07:27:59.889Z,23.91
2019-05-25T07:30:27.896Z,23.54
2019-05-25T07:33:01.042Z,23.50
2019-05-25T07:35:35.031Z,23.74
2019-05-25T07:38:08.191Z,24.01
2019-05-25T07:40:41.469Z,24.02
2019-05-25T07:43:12.925Z,23.98
2019-05-25T07:45:45.799Z,23.98
2019-05-25T07:48:19.123Z,24.39
2019-05-25T07:50:50.891Z,24.40
2019-05-25T07:53:25.773Z,24.69
2019-05-25T07:55:57.392Z,25.12
2019-05-25T07:58:29.736Z,25.31
2019-05-25T08:01:01.627Z,25.76
2019-05-25T08:03:34.535Z,26.05
2019-05-25T08:06:09.072Z,26.50
2019-05-25T08:08:43.075Z,26.32
2019-05-25T08:11:15.868Z,26.33
2019-05-25T08:13:49.314Z,26.63
2019-05-25T08:16:21.220Z,26.78
2019-05-25T08:18:52.885Z,26.22
2019-05-25T08:21:24.540Z,25.47
2019-05-25T08:23:57.412Z,25.49
2019-05-25T08:26:32.534Z,25.14
2019-05-25T08:29:07.647Z,24.83
2019-05-25T08:31:41.435Z,24.74
2019-05-25T08:34:13.193Z,24.91
2019-05-25T08:36:47.041Z,24.76
2019-05-25T08:39:19.104Z,24.25
2019-05-25T08:41:50.676Z,24.21
2019-05-25T08:44:23.746Z,23.95
2019-05-25T08:46:55.751Z,23.74
2019-05-25T08:49:28.481Z,23.20
2019-05-25T08:51:59.835Z,22.77
2019-05-25T08:54:31.902Z,22.60
2019-05-25T08:57:03.543Z,22.92
2019-05-25T08:59:35.250Z,23.68
2019-05-25T09:02:07.061Z,24.05
2019-05-25T09:04:42.403Z,24.16
2019-05-25T09:07:14.418Z,25.07
2019-05-25T09:09:47.340Z,26.14
2019-05-25T09:12:19.193Z,26.23
2019-05-25T09:14:50.820Z,25.33
2019-05-25T09:17:23.030Z,24.95
2019-05-25T09:19:56.003Z,24.52
2019-05-25T09:22:28.188Z,23.88
2019-05-25T09:25:00.366Z,23.92
2019-05-25T09:27:32.206Z,23.92
2019-05-25T09:30:05.123Z,24.18
2019-05-25T09:32:37.155Z,23.95
2019-05-25T09:35:13.554Z,23.95
2019-05-25T09:37:45.808Z,23.95
2019-05-25T09:40:17.216Z,24.20
2019-05-25T09:42:49.416Z,24.40
2019-05-25T09:45:21.114Z,24.40
2019-05-25T09:47:55.259Z,24.34
2019-05-25T09:50:27.957Z,24.23
2019-05-25T09:52:59.767Z,24.11
2019-05-25T09:55:33.919Z,24.17
2019-05-25T09:58:05.885Z,24.57
2019-05-25T10:00:40.281Z,24.51
2019-05-25T10:03:11.066Z,24.21
2019-05-25T10:05:46.681Z,23.95
2019-05-25T10:08:19.780Z,23.48
2019-05-25T10:10:53.877Z,23.18
2019-05-25T10:13:26.394Z,22.73
2019-05-25T10:15:59.026Z,22.45
2019-05-25T10:18:30.385Z,21.77
2019-05-25T10:21:04.826Z,21.27
2019-05-25T10:23:36.355Z,21.30
2019-05-25T10:26:07.924Z,20.90
2019-05-25T10:28:41.947Z,20.65
2019-05-25T10:31:15.329Z,20.24
2019-05-25T10:33:48.389Z,19.41
2019-05-25T10:36:20.989Z,18.32
2019-05-25T10:38:54.873Z,17.52
2019-05-25T10:41:28.025Z,16.86
2019-05-25T10:43:59.615Z,16.70
2019-05-25T10:46:33.113Z,16.59
2019-05-25T10:49:05.278Z,16.59
2019-05-25T10:51:36.943Z,16.56
2019-05-25T10:54:08.687Z,16.72
2019-05-25T10:56:40.884Z,16.94
2019-05-25T10:59:12.150Z,17.17
2019-05-25T11:01:44.585Z,17.57
2019-05-25T11:04:18.635Z,17.79
2019-05-25T11:06:51.492Z,18.28
2019-05-25T11:09:25.588Z,18.68
2019-05-25T11:11:59.181Z,19.15
2019-05-25T11:14:30.943Z,19.49
2019-05-25T11:17:02.599Z,20.28
2019-05-25T11:19:35.786Z,20.63
2019-05-25T11:22:17.708Z,21.17
2019-05-25T11:24:50.762Z,21.87
2019-05-25T11:27:23.026Z,21.85
2019-05-25T11:30:08.059Z,22.26
2019-05-25T11:32:30.026Z,23.09
2019-05-25T11:35:01.918Z,23.38
2019-05-25T11:37:36.400Z,23.43
2019-05-25T11:40:09.368Z,24.32
2019-05-25T11:42:42.736Z,25.19
2019-05-25T11:45:14.827Z,25.61
2019-05-25T11:47:46.095Z,24.90
2019-05-25T11:50:18.351Z,23.63
2019-05-25T11:52:50.239Z,22.54
2019-05-25T11:55:22.178Z,22.19
2019-05-25T11:57:56.092Z,21.97
2019-05-25T12:00:28.205Z,21.90
2019-05-25T12:02:59.571Z,22.31
2019-05-25T12:05:33.402Z,22.45
2019-05-25T12:08:05.139Z,22.60
2019-05-25T12:10:37.526Z,23.23
2019-05-25T12:13:11.232Z,22.36
2019-05-25T12:15:44.426Z,21.98
2019-05-25T12:18:16.282Z,21.74
2019-05-25T12:20:48.245Z,21.78
2019-05-25T12:23:21.224Z,21.85
2019-05-25T12:25:53.807Z,21.82
2019-05-25T12:28:26.785Z,21.67
2019-05-25T12:31:00.305Z,21.56
2019-05-25T12:33:33.041Z,21.71
2019-05-25T12:36:07.665Z,21.88
2019-05-25T12:38:40.521Z,21.92
2019-05-25T12:41:12.229Z,22.25
2019-05-25T12:43:44.494Z,22.58
2019-05-25T12:46:15.989Z,22.84
2019-05-25T12:48:48.525Z,23.01
2019-05-25T12:51:20.585Z,23.27
2019-05-25T12:53:52.343Z,23.59
2019-05-25T12:56:26.162Z,23.86
2019-05-25T12:58:59.736Z,25.08
2019-05-25T13:01:32.319Z,26.49
2019-05-25T13:04:03.571Z,27.36
2019-05-25T13:06:38.743Z,27.71
2019-05-25T13:09:10.763Z,27.85
2019-05-25T13:11:45.393Z,27.85
2019-05-25T13:14:17.990Z,28.49
2019-05-25T13:16:50.539Z,29.06
2019-05-25T13:19:22.805Z,28.98
2019-05-25T13:21:55.339Z,28.63
2019-05-25T13:24:28.397Z,28.82
2019-05-25T13:26:59.516Z,29.69
2019-05-25T13:29:32.496Z,30.12
2019-05-25T13:32:05.808Z,31.09
2019-05-25T13:34:37.803Z,32.18
2019-05-25T13:37:09.963Z,32.12
2019-05-25T13:39:42.094Z,32.70
2019-05-25T13:42:13.187Z,32.13
2019-05-25T13:44:44.778Z,32.86
2019-05-25T13:47:16.330Z,32.28
2019-05-25T13:49:49.313Z,32.63
2019-05-25T13:52:20.889Z,32.43
2019-05-25T13:54:52.954Z,32.38
2019-05-25T13:57:24.602Z,32.16
2019-05-25T13:59:56.042Z,32.00
2019-05-25T14:02:27.888Z,31.92
2019-05-25T14:05:01.901Z,31.94
2019-05-25T14:07:36.219Z,32.27
2019-05-25T14:10:11.865Z,32.45
2019-05-25T14:12:44.141Z,33.15
2019-05-25T14:15:16.122Z,32.96
2019-05-25T14:17:48.616Z,32.81
2019-05-25T14:20:20.226Z,32.37
2019-05-25T14:22:51.687Z,32.11
2019-05-25T14:25:23.142Z,31.89
2019-05-25T14:27:56.629Z,32.11
2019-05-25T14:30:30.226Z,31.56
2019-05-25T14:33:04.435Z,31.86
2019-05-25T14:35:38.271Z,31.68
2019-05-25T14:38:09.686Z,31.72
2019-05-25T14:40:42.876Z,31.67
2019-05-25T14:43:15.470Z,31.10
2019-05-25T14:45:47.117Z,30.28
2019-05-25T14:48:21.123Z,30.02
2019-05-25T14:50:52.624Z,29.83
2019-05-25T14:53:26.046Z,29.65
2019-05-25T14:56:00.379Z,29.76
2019-05-25T14:58:31.831Z,29.91
2019-05-25T15:01:06.169Z,30.07
2019-05-25T15:03:37.392Z,30.06
2019-05-25T15:06:09.730Z,30.11
2019-05-25T15:08:41.736Z,29.89
2019-05-25T15:11:14.400Z,29.24
2019-05-25T15:13:46.303Z,28.31
2019-05-25T15:16:21.190Z,28.25
2019-05-25T15:18:52.588Z,28.94
2019-05-25T15:21:25.940Z,28.65
2019-05-25T15:23:58.408Z,28.63
2019-05-25T15:26:31.906Z,28.51
2019-05-25T15:29:03.658Z,27.68
2019-05-25T15:31:36.545Z,27.15
2019-05-25T15:34:08.706Z,26.30
2019-05-25T15:36:42.000Z,25.97
2019-05-25T15:39:13.736Z,25.39
2019-05-25T15:41:48.792Z,24.88
2019-05-25T15:44:20.446Z,24.52
2019-05-25T15:46:54.797Z,24.33
2019-05-25T15:49:33.454Z,24.02
2019-05-25T15:52:03.600Z,23.83
2019-05-25T15:54:37.728Z,24.20
2019-05-25T15:57:12.749Z,24.34
2019-05-25T15:59:44.214Z,24.34
2019-05-25T16:02:15.625Z,24.37
2019-05-25T16:04:47.197Z,24.36
2019-05-25T16:07:20.909Z,24.07
2019-05-25T16:09:53.270Z,23.82
2019-05-25T16:12:24.316Z,23.88
2019-05-25T16:14:57.593Z,23.55
2019-05-25T16:17:31.207Z,23.24
2019-05-25T16:20:03.371Z,23.12
2019-05-25T16:22:40.156Z,23.16
2019-05-25T16:25:12.513Z,23.13
2019-05-25T16:27:45.607Z,23.07
2019-05-25T16:30:17.831Z,23.20
2019-05-25T16:35:27.964Z,23.74
2019-05-25T16:38:02.150Z,23.68
2019-05-25T16:40:35.956Z,23.64
2019-05-25T16:43:09.686Z,23.41
2019-05-25T16:45:41.184Z,23.26
2019-05-25T16:48:13.796Z,22.73
2019-05-25T16:50:46.108Z,22.10
2019-05-25T16:53:19.861Z,21.74
2019-05-25T16:55:54.586Z,21.41
2019-05-25T16:58:27.779Z,21.23
2019-05-25T17:01:00.165Z,21.11
2019-05-25T17:03:31.426Z,21.02
2019-05-25T17:06:04.775Z,20.90
2019-05-25T17:08:39.307Z,20.71
2019-05-25T17:11:12.426Z,20.68
2019-05-25T17:13:46.413Z,20.42
2019-05-25T17:16:19.123Z,20.45
2019-05-25T17:18:52.636Z,20.44
2019-05-25T17:21:24.343Z,20.32
2019-05-25T17:23:56.809Z,20.27
2019-05-25T17:26:31.023Z,20.21
2019-05-25T17:29:05.137Z,20.19
2019-05-25T17:31:40.378Z,20.08
2019-05-25T17:34:11.925Z,19.96
2019-05-25T17:36:43.581Z,19.90
2019-05-25T17:39:14.824Z,19.85
2019-05-25T17:41:48.836Z,19.78
2019-05-25T17:44:21.207Z,19.69
2019-05-25T17:46:54.095Z,19.66
2019-05-25T17:49:27.584Z,19.61
2019-05-25T17:51:59.035Z,19.51
2019-05-25T17:54:31.610Z,19.55
2019-05-25T17:57:03.926Z,19.49
2019-05-25T17:59:36.760Z,19.45
2019-05-25T18:02:09.700Z,19.47
2019-05-25T18:04:42.425Z,19.37
2019-05-25T18:07:14.076Z,19.38
2019-05-25T18:09:45.793Z,19.30
2019-05-25T18:12:20.457Z,19.18
2019-05-25T18:14:53.037Z,19.19
2019-05-25T18:17:24.895Z,19.21
2019-05-25T18:19:56.858Z,19.14
2019-05-25T18:22:31.017Z,19.11
2019-05-25T18:25:07.349Z,19.05
2019-05-25T18:27:38.722Z,19.07
2019-05-25T18:30:12.678Z,19.05
2019-05-25T18:32:45.259Z,19.15
2019-05-25T18:35:17.190Z,19.11
2019-05-25T18:37:51.117Z,19.02
2019-05-25T18:40:23.049Z,19.02
2019-05-25T18:42:54.646Z,19.06
2019-05-25T18:45:31.727Z,19.09
2019-05-25T18:48:04.813Z,19.10
2019-05-25T18:50:36.462Z,19.04
2019-05-25T18:53:11.452Z,18.84
2019-05-25T18:55:44.073Z,18.83
2019-05-25T18:58:17.844Z,18.95
2019-05-25T19:00:51.277Z,18.96
2019-05-25T19:03:24.841Z,18.95
2019-05-25T19:05:56.369Z,18.75
2019-05-25T19:08:27.854Z,18.83
2019-05-25T19:11:02.193Z,18.77
2019-05-25T19:13:36.912Z,18.77
2019-05-25T19:16:08.660Z,18.56
2019-05-25T19:18:42.576Z,18.75
2019-05-25T19:21:15.045Z,18.79
2019-05-25T19:23:50.699Z,18.78
2019-05-25T19:26:22.671Z,18.80
2019-05-25T19:28:58.514Z,18.78
2019-05-25T19:31:30.046Z,18.77
2019-05-25T19:34:02.854Z,18.80
2019-05-25T19:36:35.424Z,18.84
2019-05-25T19:39:08.718Z,18.85
2019-05-25T19:41:40.431Z,18.73
2019-05-25T19:44:12.131Z,18.72
2019-05-25T19:46:46.411Z,18.76
2019-05-25T19:49:18.394Z,18.73
2019-05-25T19:51:50.899Z,18.76
2019-05-25T19:54:24.791Z,18.76
2019-05-25T19:56:56.422Z,18.82
2019-05-25T19:59:28.141Z,18.89
2019-05-25T20:02:01.496Z,18.94
2019-05-25T20:04:33.131Z,18.90
2019-05-25T20:07:06.267Z,18.86
2019-05-25T20:09:41.468Z,18.86
2019-05-25T20:12:13.024Z,18.82
2019-05-25T20:14:47.028Z,18.76
2019-05-25T20:17:20.528Z,18.72
2019-05-25T20:19:52.692Z,18.68
2019-05-25T20:22:24.569Z,18.63
2019-05-25T20:24:58.157Z,18.61
2019-05-25T20:27:33.600Z,18.59
2019-05-25T20:30:09.488Z,18.57
2019-05-25T20:32:41.211Z,18.45
2019-05-25T20:35:14.040Z,18.41
2019-05-25T20:37:45.577Z,18.41
2019-05-25T20:40:18.522Z,18.41
2019-05-25T20:42:51.301Z,18.41
2019-05-25T20:45:24.551Z,18.33
2019-05-25T20:47:56.132Z,18.28
2019-05-25T20:50:29.337Z,18.26
2019-05-25T20:53:03.654Z,18.28
2019-05-25T20:55:36.169Z,18.29
2019-05-25T20:58:09.439Z,18.34
2019-05-25T21:00:42.766Z,18.37
2019-05-25T21:03:14.878Z,18.37
2019-05-25T21:05:50.609Z,18.35
2019-05-25T21:08:21.973Z,18.31
2019-05-25T21:10:53.756Z,18.31
2019-05-25T21:13:27.227Z,18.27
2019-05-25T21:15:59.085Z,18.24
2019-05-25T21:18:30.741Z,18.22
2019-05-25T21:21:02.209Z,18.19
2019-05-25T21:23:35.714Z,18.16
2019-05-25T21:26:08.469Z,18.09
2019-05-25T21:28:40.027Z,18.02
2019-05-25T21:31:13.932Z,18.01
2019-05-25T21:33:46.501Z,17.96
2019-05-25T21:36:17.784Z,17.96
2019-05-25T21:38:50.731Z,17.96
2019-05-25T21:41:23.819Z,17.98
2019-05-25T21:43:55.883Z,17.98
2019-05-25T21:46:27.537Z,17.97
2019-05-25T21:49:00.422Z,18.02
2019-05-25T21:51:34.429Z,18.13
2019-05-25T21:54:07.825Z,18.17
2019-05-25T21:56:43.288Z,18.14
2019-05-25T21:59:16.764Z,18.11
2019-05-25T22:01:48.368Z,18.06
2019-05-25T22:04:20.584Z,17.99
2019-05-25T22:06:52.559Z,17.94
2019-05-25T22:09:26.659Z,17.85
2019-05-25T22:11:59.075Z,17.81
2019-05-25T22:14:31.091Z,17.78
2019-05-25T22:17:04.537Z,17.81
2019-05-25T22:19:37.470Z,17.78
2019-05-25T22:22:10.679Z,17.78
2019-05-25T22:24:44.960Z,17.76
2019-05-25T22:27:20.219Z,17.68
2019-05-25T22:29:53.404Z,17.63
2019-05-25T22:32:26.081Z,17.62
2019-05-25T22:34:59.800Z,17.61
2019-05-25T22:37:32.263Z,17.60
2019-05-25T22:40:08.217Z,17.59
2019-05-25T22:42:40.368Z,17.59
2019-05-25T22:45:12.344Z,17.59
2019-05-25T22:47:43.717Z,17.59
2019-05-25T22:50:18.207Z,17.58
2019-05-25T22:52:50.672Z,17.54
2019-05-25T22:55:25.677Z,17.48
2019-05-25T22:57:58.163Z,17.44
2019-05-25T23:00:32.196Z,17.34
2019-05-25T23:03:06.547Z,17.33
2019-05-25T23:05:39.306Z,17.34
2019-05-25T23:08:13.505Z,17.33
2019-05-25T23:10:45.982Z,17.31
2019-05-25T23:13:18.442Z,17.34
2019-05-25T23:15:50.216Z,17.32
2019-05-25T23:18:23.266Z,17.34
2019-05-25T23:20:56.325Z,17.35
2019-05-25T23:23:28.047Z,17.32
2019-05-25T23:26:00.444Z,17.30
2019-05-25T23:28:32.492Z,17.27
2019-05-25T23:31:05.158Z,17.21
2019-05-25T23:33:37.222Z,17.21
2019-05-25T23:36:08.494Z,17.17
2019-05-25T23:38:42.358Z,17.15
2019-05-25T23:41:14.023Z,17.10
2019-05-25T23:43:45.786Z,17.16
2019-05-25T23:46:18.249Z,17.11
2019-05-25T23:48:51.989Z,17.05
2019-05-25T23:51:23.504Z,17.00
2019-05-25T23:53:56.809Z,16.98
2019-05-25T23:56:28.566Z,16.95
2019-05-25T23:59:00.055Z,16.95
